sensor_id;sensor_type;location;lat;lon;timestamp;temperature;humidity
17333;DHT22;8784;50.94667800;7.08448400;2024-03-22T00:00:35;11.80;99.90
17333;DHT22;8784;50.94667800;7.08448400;2024-03-22T00:03:03;11.80;99.90
17333;DHT22;8784;50.94667800;7.08448400;2024-03-22T00:05:29;11.80;99.90
17333;DHT22;8784;50.94667800;7.08448400;2024-03-22T00:07:56;11.80;99.90
17333;DHT22;8784;50.94667800;7.08448400;2024-03-22T00:10:22;11.80;99.90
17333;DHT22;8784;50.94667800;7.08448400;2024-03-22T00:12:49;11.70;99.90
17333;DHT22;8784;50.94667800;7.08448400;2024-03-22T00:15:17;11.70;99.90
17333;DHT22;8784;50.94667800;7.08448400;2024-03-22T00:17:45;11.70;99.90
17333;DHT22;8784;50.94667800;7.08448400;2024-03-22T00:20:11;11.70;99.90
17333;DHT22;8784;50.94667800;7.08448400;2024-03-22T00:22:39;11.70;99.90
17333;DHT22;8784;50.94667800;7.08448400;2024-03-22T00:25:05;11.70;99.90
17333;DHT22;8784;50.94667800;7.08448400;2024-03-22T00:27:32;11.80;99.90
17333;DHT22;8784;50.94667800;7.08448400;2024-03-22T00:29:58;11.80;99.90
17333;DHT22;8784;50.94667800;7.08448400;2024-03-22T00:32:27;11.80;99.90
17333;DHT22;8784;50.94667800;7.08448400;2024-03-22T00:34:53;11.90;99.90
17333;DHT22;8784;50.94667800;7.08448400;2024-03-22T00:37:20;11.90;99.90
17333;DHT22;8784;50.94667800;7.08448400;2024-03-22T00:39:45;11.90;99.90
17333;DHT22;8784;50.94667800;7.08448400;2024-03-22T00:42:12;11.90;99.90
17333;DHT22;8784;50.94667800;7.08448400;2024-03-22T00:44:38;11.90;99.90
17333;DHT22;8784;50.94667800;7.08448400;2024-03-22T00:47:05;11.90;99.90
17333;DHT22;8784;50.94667800;7.08448400;2024-03-22T00:49:33;11.90;99.90
17333;DHT22;8784;50.94667800;7.08448400;2024-03-22T00:52:00;11.90;99.90
17333;DHT22;8784;50.94667800;7.08448400;2024-03-22T00:54:26;11.80;99.90
17333;DHT22;8784;50.94667800;7.08448400;2024-03-22T00:56:53;11.80;99.90
17333;DHT22;8784;50.94667800;7.08448400;2024-03-22T00:59:19;11.80;99.90
17333;DHT22;8784;50.94667800;7.08448400;2024-03-22T01:01:46;11.80;99.90
17333;DHT22;8784;50.94667800;7.08448400;2024-03-22T01:04:12;11.80;99.90
17333;DHT22;8784;50.94667800;7.08448400;2024-03-22T01:06:40;11.80;99.90
17333;DHT22;8784;50.94667800;7.08448400;2024-03-22T01:09:06;11.80;99.90
17333;DHT22;8784;50.94667800;7.08448400;2024-03-22T01:11:34;11.80;99.90
17333;DHT22;8784;50.94667800;7.08448400;2024-03-22T01:13:59;11.90;99.90
17333;DHT22;8784;50.94667800;7.08448400;2024-03-22T01:16:26;12.00;99.90
17333;DHT22;8784;50.94667800;7.08448400;2024-03-22T01:18:52;12.00;99.90
17333;DHT22;8784;50.94667800;7.08448400;2024-03-22T01:21:19;12.00;99.90
17333;DHT22;8784;50.94667800;7.08448400;2024-03-22T01:23:51;12.00;99.90
17333;DHT22;8784;50.94667800;7.08448400;2024-03-22T01:26:18;12.00;99.90
17333;DHT22;8784;50.94667800;7.08448400;2024-03-22T01:28:45;12.00;99.90
17333;DHT22;8784;50.94667800;7.08448400;2024-03-22T01:31:13;12.10;99.90
17333;DHT22;8784;50.94667800;7.08448400;2024-03-22T01:33:38;12.10;99.90
17333;DHT22;8784;50.94667800;7.08448400;2024-03-22T01:36:06;12.20;99.90
17333;DHT22;8784;50.94667800;7.08448400;2024-03-22T01:38:32;12.20;99.90
17333;DHT22;8784;50.94667800;7.08448400;2024-03-22T01:41:00;12.10;99.90
17333;DHT22;8784;50.94667800;7.08448400;2024-03-22T01:43:26;12.10;99.90
17333;DHT22;8784;50.94667800;7.08448400;2024-03-22T01:45:53;12.00;99.90
17333;DHT22;8784;50.94667800;7.08448400;2024-03-22T01:48:19;12.00;99.90
17333;DHT22;8784;50.94667800;7.08448400;2024-03-22T01:50:47;12.10;99.90
17333;DHT22;8784;50.94667800;7.08448400;2024-03-22T01:53:13;12.20;99.90
17333;DHT22;8784;50.94667800;7.08448400;2024-03-22T01:55:42;12.20;99.90
17333;DHT22;8784;50.94667800;7.08448400;2024-03-22T01:58:10;12.30;99.90
17333;DHT22;8784;50.94667800;7.08448400;2024-03-22T02:00:38;12.40;99.90
17333;DHT22;8784;50.94667800;7.08448400;2024-03-22T02:03:04;12.40;99.90
17333;DHT22;8784;50.94667800;7.08448400;2024-03-22T02:05:32;12.50;99.90
17333;DHT22;8784;50.94667800;7.08448400;2024-03-22T02:07:58;12.50;99.90
17333;DHT22;8784;50.94667800;7.08448400;2024-03-22T02:10:24;12.50;99.90
17333;DHT22;8784;50.94667800;7.08448400;2024-03-22T02:12:50;12.50;99.90
17333;DHT22;8784;50.94667800;7.08448400;2024-03-22T02:15:20;12.50;99.90
17333;DHT22;8784;50.94667800;7.08448400;2024-03-22T02:17:46;12.30;99.90
17333;DHT22;8784;50.94667800;7.08448400;2024-03-22T02:20:13;12.40;99.90
17333;DHT22;8784;50.94667800;7.08448400;2024-03-22T02:22:39;12.40;99.90
17333;DHT22;8784;50.94667800;7.08448400;2024-03-22T02:25:07;12.30;99.90
17333;DHT22;8784;50.94667800;7.08448400;2024-03-22T02:27:33;12.40;99.90
17333;DHT22;8784;50.94667800;7.08448400;2024-03-22T02:30:00;12.40;99.90
17333;DHT22;8784;50.94667800;7.08448400;2024-03-22T02:32:27;12.50;99.90
17333;DHT22;8784;50.94667800;7.08448400;2024-03-22T02:34:54;12.50;99.90
17333;DHT22;8784;50.94667800;7.08448400;2024-03-22T02:37:20;12.60;99.90
17333;DHT22;8784;50.94667800;7.08448400;2024-03-22T02:39:47;12.60;99.90
17333;DHT22;8784;50.94667800;7.08448400;2024-03-22T02:42:14;12.60;99.90
17333;DHT22;8784;50.94667800;7.08448400;2024-03-22T02:44:41;12.60;99.90
17333;DHT22;8784;50.94667800;7.08448400;2024-03-22T02:47:08;12.50;99.90
17333;DHT22;8784;50.94667800;7.08448400;2024-03-22T02:49:35;12.40;99.90
17333;DHT22;8784;50.94667800;7.08448400;2024-03-22T02:52:01;12.40;99.90
17333;DHT22;8784;50.94667800;7.08448400;2024-03-22T02:54:28;12.40;99.90
17333;DHT22;8784;50.94667800;7.08448400;2024-03-22T02:56:54;12.30;99.90
17333;DHT22;8784;50.94667800;7.08448400;2024-03-22T02:59:25;12.40;99.90
17333;DHT22;8784;50.94667800;7.08448400;2024-03-22T03:01:51;12.40;99.90
17333;DHT22;8784;50.94667800;7.08448400;2024-03-22T03:04:18;12.50;99.90
17333;DHT22;8784;50.94667800;7.08448400;2024-03-22T03:06:44;12.50;99.90
17333;DHT22;8784;50.94667800;7.08448400;2024-03-22T03:09:11;12.40;99.90
17333;DHT22;8784;50.94667800;7.08448400;2024-03-22T03:11:38;12.50;99.90
17333;DHT22;8784;50.94667800;7.08448400;2024-03-22T03:14:05;12.40;99.90
17333;DHT22;8784;50.94667800;7.08448400;2024-03-22T03:16:33;12.40;99.90
17333;DHT22;8784;50.94667800;7.08448400;2024-03-22T03:19:00;12.40;99.90
17333;DHT22;8784;50.94667800;7.08448400;2024-03-22T03:21:25;12.40;99.90
17333;DHT22;8784;50.94667800;7.08448400;2024-03-22T03:23:52;12.40;99.90
17333;DHT22;8784;50.94667800;7.08448400;2024-03-22T03:26:18;12.40;99.90
17333;DHT22;8784;50.94667800;7.08448400;2024-03-22T03:28:45;12.40;99.90
17333;DHT22;8784;50.94667800;7.08448400;2024-03-22T03:31:11;12.40;99.90
17333;DHT22;8784;50.94667800;7.08448400;2024-03-22T03:33:39;12.30;99.90
17333;DHT22;8784;50.94667800;7.08448400;2024-03-22T03:36:05;12.30;99.90
17333;DHT22;8784;50.94667800;7.08448400;2024-03-22T03:38:32;12.10;99.90
17333;DHT22;8784;50.94667800;7.08448400;2024-03-22T03:40:58;12.10;99.90
17333;DHT22;8784;50.94667800;7.08448400;2024-03-22T03:43:25;12.10;99.90
17333;DHT22;8784;50.94667800;7.08448400;2024-03-22T03:45:51;12.10;99.90
17333;DHT22;8784;50.94667800;7.08448400;2024-03-22T03:48:19;12.20;99.90
17333;DHT22;8784;50.94667800;7.08448400;2024-03-22T03:50:52;12.20;99.90
17333;DHT22;8784;50.94667800;7.08448400;2024-03-22T03:53:20;12.20;99.90
17333;DHT22;8784;50.94667800;7.08448400;2024-03-22T03:55:46;12.20;99.90
17333;DHT22;8784;50.94667800;7.08448400;2024-03-22T03:58:13;12.10;99.90
17333;DHT22;8784;50.94667800;7.08448400;2024-03-22T04:00:39;12.10;99.90
17333;DHT22;8784;50.94667800;7.08448400;2024-03-22T04:03:06;12.20;99.90
17333;DHT22;8784;50.94667800;7.08448400;2024-03-22T04:05:31;12.10;99.90
17333;DHT22;8784;50.94667800;7.08448400;2024-03-22T04:08:00;12.10;99.90
17333;DHT22;8784;50.94667800;7.08448400;2024-03-22T04:10:26;12.20;99.90
17333;DHT22;8784;50.94667800;7.08448400;2024-03-22T04:12:53;12.20;99.90
17333;DHT22;8784;50.94667800;7.08448400;2024-03-22T04:15:19;12.30;99.90
17333;DHT22;8784;50.94667800;7.08448400;2024-03-22T04:17:46;12.20;99.90
17333;DHT22;8784;50.94667800;7.08448400;2024-03-22T04:20:12;12.20;99.90
17333;DHT22;8784;50.94667800;7.08448400;2024-03-22T04:22:39;12.20;99.90
17333;DHT22;8784;50.94667800;7.08448400;2024-03-22T04:25:07;12.20;99.90
17333;DHT22;8784;50.94667800;7.08448400;2024-03-22T04:27:36;12.20;99.90
17333;DHT22;8784;50.94667800;7.08448400;2024-03-22T04:30:02;12.20;99.90
17333;DHT22;8784;50.94667800;7.08448400;2024-03-22T04:32:29;12.20;99.90
17333;DHT22;8784;50.94667800;7.08448400;2024-03-22T04:34:55;12.20;99.90
17333;DHT22;8784;50.94667800;7.08448400;2024-03-22T04:37:21;12.10;99.90
17333;DHT22;8784;50.94667800;7.08448400;2024-03-22T04:39:49;12.00;99.90
17333;DHT22;8784;50.94667800;7.08448400;2024-03-22T04:42:17;12.00;99.90
17333;DHT22;8784;50.94667800;7.08448400;2024-03-22T04:44:45;11.90;99.90
17333;DHT22;8784;50.94667800;7.08448400;2024-03-22T04:47:11;11.90;99.90
17333;DHT22;8784;50.94667800;7.08448400;2024-03-22T04:49:38;11.90;99.90
17333;DHT22;8784;50.94667800;7.08448400;2024-03-22T04:52:04;11.90;99.90
17333;DHT22;8784;50.94667800;7.08448400;2024-03-22T04:54:31;11.90;99.90
17333;DHT22;8784;50.94667800;7.08448400;2024-03-22T04:56:57;11.80;99.90
17333;DHT22;8784;50.94667800;7.08448400;2024-03-22T04:59:26;11.70;99.90
17333;DHT22;8784;50.94667800;7.08448400;2024-03-22T05:01:52;11.70;99.90
17333;DHT22;8784;50.94667800;7.08448400;2024-03-22T05:04:19;11.70;99.90
17333;DHT22;8784;50.94667800;7.08448400;2024-03-22T05:06:45;11.70;99.90
17333;DHT22;8784;50.94667800;7.08448400;2024-03-22T05:09:12;11.70;99.90
17333;DHT22;8784;50.94667800;7.08448400;2024-03-22T05:11:38;11.70;99.90
17333;DHT22;8784;50.94667800;7.08448400;2024-03-22T05:14:05;11.70;99.90
17333;DHT22;8784;50.94667800;7.08448400;2024-03-22T05:16:32;11.70;99.90
17333;DHT22;8784;50.94667800;7.08448400;2024-03-22T05:18:59;11.70;99.90
17333;DHT22;8784;50.94667800;7.08448400;2024-03-22T05:21:25;11.80;99.90
17333;DHT22;8784;50.94667800;7.08448400;2024-03-22T05:23:52;11.90;99.90
17333;DHT22;8784;50.94667800;7.08448400;2024-03-22T05:26:18;12.00;99.90
17333;DHT22;8784;50.94667800;7.08448400;2024-03-22T05:28:46;12.00;99.90
17333;DHT22;8784;50.94667800;7.08448400;2024-03-22T05:31:12;12.00;99.90
17333;DHT22;8784;50.94667800;7.08448400;2024-03-22T05:33:41;12.00;99.90
17333;DHT22;8784;50.94667800;7.08448400;2024-03-22T05:36:07;12.10;99.90
17333;DHT22;8784;50.94667800;7.08448400;2024-03-22T05:38:34;12.10;99.90
17333;DHT22;8784;50.94667800;7.08448400;2024-03-22T05:41:04;12.10;99.90
17333;DHT22;8784;50.94667800;7.08448400;2024-03-22T05:43:30;12.20;99.90
17333;DHT22;8784;50.94667800;7.08448400;2024-03-22T05:45:56;12.30;99.90
17333;DHT22;8784;50.94667800;7.08448400;2024-03-22T05:48:23;12.40;99.90
17333;DHT22;8784;50.94667800;7.08448400;2024-03-22T05:50:50;12.50;99.90
17333;DHT22;8784;50.94667800;7.08448400;2024-03-22T05:53:18;12.50;99.90
17333;DHT22;8784;50.94667800;7.08448400;2024-03-22T05:55:44;12.50;99.90
17333;DHT22;8784;50.94667800;7.08448400;2024-03-22T05:58:11;12.50;99.90
17333;DHT22;8784;50.94667800;7.08448400;2024-03-22T06:00:38;12.50;99.90
17333;DHT22;8784;50.94667800;7.08448400;2024-03-22T06:03:05;12.50;99.90
17333;DHT22;8784;50.94667800;7.08448400;2024-03-22T06:05:31;12.50;99.90
17333;DHT22;8784;50.94667800;7.08448400;2024-03-22T06:08:01;12.60;99.90
17333;DHT22;8784;50.94667800;7.08448400;2024-03-22T06:10:29;12.60;99.90
17333;DHT22;8784;50.94667800;7.08448400;2024-03-22T06:12:56;12.70;99.90
17333;DHT22;8784;50.94667800;7.08448400;2024-03-22T06:15:22;12.70;99.90
17333;DHT22;8784;50.94667800;7.08448400;2024-03-22T06:17:49;12.90;99.90
17333;DHT22;8784;50.94667800;7.08448400;2024-03-22T06:20:16;12.90;99.90
17333;DHT22;8784;50.94667800;7.08448400;2024-03-22T06:22:43;12.90;99.90
17333;DHT22;8784;50.94667800;7.08448400;2024-03-22T06:25:10;13.00;99.90
17333;DHT22;8784;50.94667800;7.08448400;2024-03-22T06:27:37;13.00;99.90
17333;DHT22;8784;50.94667800;7.08448400;2024-03-22T06:30:03;13.10;99.90
17333;DHT22;8784;50.94667800;7.08448400;2024-03-22T06:32:30;13.10;99.90
17333;DHT22;8784;50.94667800;7.08448400;2024-03-22T06:34:56;13.20;99.90
17333;DHT22;8784;50.94667800;7.08448400;2024-03-22T06:37:23;13.20;99.90
17333;DHT22;8784;50.94667800;7.08448400;2024-03-22T06:39:49;13.20;99.90
17333;DHT22;8784;50.94667800;7.08448400;2024-03-22T06:42:17;13.20;99.90
17333;DHT22;8784;50.94667800;7.08448400;2024-03-22T06:44:43;13.20;99.90
17333;DHT22;8784;50.94667800;7.08448400;2024-03-22T06:47:10;13.20;99.90
17333;DHT22;8784;50.94667800;7.08448400;2024-03-22T06:49:36;13.20;99.90
17333;DHT22;8784;50.94667800;7.08448400;2024-03-22T06:52:03;13.20;99.90
17333;DHT22;8784;50.94667800;7.08448400;2024-03-22T06:54:29;13.30;99.90
17333;DHT22;8784;50.94667800;7.08448400;2024-03-22T06:56:56;13.40;99.90
17333;DHT22;8784;50.94667800;7.08448400;2024-03-22T06:59:23;13.40;99.90
17333;DHT22;8784;50.94667800;7.08448400;2024-03-22T07:01:50;13.50;99.90
17333;DHT22;8784;50.94667800;7.08448400;2024-03-22T07:04:16;13.50;99.90
17333;DHT22;8784;50.94667800;7.08448400;2024-03-22T07:06:43;13.60;99.90
17333;DHT22;8784;50.94667800;7.08448400;2024-03-22T07:09:09;13.80;99.90
17333;DHT22;8784;50.94667800;7.08448400;2024-03-22T07:11:37;14.00;99.90
17333;DHT22;8784;50.94667800;7.08448400;2024-03-22T07:14:02;14.40;99.90
17333;DHT22;8784;50.94667800;7.08448400;2024-03-22T07:16:31;14.70;99.90
17333;DHT22;8784;50.94667800;7.08448400;2024-03-22T07:18:57;15.00;99.90
17333;DHT22;8784;50.94667800;7.08448400;2024-03-22T07:21:24;15.30;99.90
17333;DHT22;8784;50.94667800;7.08448400;2024-03-22T07:23:50;15.40;99.90
17333;DHT22;8784;50.94667800;7.08448400;2024-03-22T07:26:19;15.30;99.90
17333;DHT22;8784;50.94667800;7.08448400;2024-03-22T07:28:45;15.20;99.90
17333;DHT22;8784;50.94667800;7.08448400;2024-03-22T07:31:12;15.10;99.90
17333;DHT22;8784;50.94667800;7.08448400;2024-03-22T07:33:40;15.00;99.90
17333;DHT22;8784;50.94667800;7.08448400;2024-03-22T07:36:07;14.90;99.90
17333;DHT22;8784;50.94667800;7.08448400;2024-03-22T07:38:33;14.90;99.90
17333;DHT22;8784;50.94667800;7.08448400;2024-03-22T07:41:00;15.00;99.90
17333;DHT22;8784;50.94667800;7.08448400;2024-03-22T07:43:26;15.10;99.90
17333;DHT22;8784;50.94667800;7.08448400;2024-03-22T07:45:53;15.20;99.90
17333;DHT22;8784;50.94667800;7.08448400;2024-03-22T07:48:19;15.30;99.90
17333;DHT22;8784;50.94667800;7.08448400;2024-03-22T07:50:55;15.40;99.90
17333;DHT22;8784;50.94667800;7.08448400;2024-03-22T07:53:21;15.50;99.90
17333;DHT22;8784;50.94667800;7.08448400;2024-03-22T07:55:48;15.50;99.90
17333;DHT22;8784;50.94667800;7.08448400;2024-03-22T07:58:14;15.60;99.90
17333;DHT22;8784;50.94667800;7.08448400;2024-03-22T08:00:41;15.70;99.90
17333;DHT22;8784;50.94667800;7.08448400;2024-03-22T08:03:08;15.80;99.90
17333;DHT22;8784;50.94667800;7.08448400;2024-03-22T08:05:40;15.90;99.90
17333;DHT22;8784;50.94667800;7.08448400;2024-03-22T08:08:08;16.30;99.90
17333;DHT22;8784;50.94667800;7.08448400;2024-03-22T08:10:34;16.60;99.90
17333;DHT22;8784;50.94667800;7.08448400;2024-03-22T08:13:00;16.90;99.90
17333;DHT22;8784;50.94667800;7.08448400;2024-03-22T08:15:27;17.20;99.90
17333;DHT22;8784;50.94667800;7.08448400;2024-03-22T08:17:54;17.40;99.90
17333;DHT22;8784;50.94667800;7.08448400;2024-03-22T08:20:23;17.40;99.90
17333;DHT22;8784;50.94667800;7.08448400;2024-03-22T08:22:49;17.30;99.90
17333;DHT22;8784;50.94667800;7.08448400;2024-03-22T08:25:17;17.10;99.90
17333;DHT22;8784;50.94667800;7.08448400;2024-03-22T08:27:45;17.00;99.90
17333;DHT22;8784;50.94667800;7.08448400;2024-03-22T08:30:13;17.00;99.90
17333;DHT22;8784;50.94667800;7.08448400;2024-03-22T08:32:39;17.10;99.90
17333;DHT22;8784;50.94667800;7.08448400;2024-03-22T08:35:06;17.30;99.90
17333;DHT22;8784;50.94667800;7.08448400;2024-03-22T08:37:33;17.60;99.90
17333;DHT22;8784;50.94667800;7.08448400;2024-03-22T08:40:00;17.80;99.90
17333;DHT22;8784;50.94667800;7.08448400;2024-03-22T08:42:28;17.90;99.90
17333;DHT22;8784;50.94667800;7.08448400;2024-03-22T08:44:55;18.20;99.90
17333;DHT22;8784;50.94667800;7.08448400;2024-03-22T08:47:23;18.50;99.90
17333;DHT22;8784;50.94667800;7.08448400;2024-03-22T08:49:53;18.70;99.90
17333;DHT22;8784;50.94667800;7.08448400;2024-03-22T08:52:19;18.80;99.90
17333;DHT22;8784;50.94667800;7.08448400;2024-03-22T08:54:46;18.80;99.90
17333;DHT22;8784;50.94667800;7.08448400;2024-03-22T08:57:12;18.80;99.90
17333;DHT22;8784;50.94667800;7.08448400;2024-03-22T08:59:40;18.70;99.90
17333;DHT22;8784;50.94667800;7.08448400;2024-03-22T09:02:06;18.70;99.90
17333;DHT22;8784;50.94667800;7.08448400;2024-03-22T09:04:33;18.60;99.90
17333;DHT22;8784;50.94667800;7.08448400;2024-03-22T09:06:59;18.50;99.90
17333;DHT22;8784;50.94667800;7.08448400;2024-03-22T09:09:26;18.40;99.90
17333;DHT22;8784;50.94667800;7.08448400;2024-03-22T09:11:54;18.40;99.90
17333;DHT22;8784;50.94667800;7.08448400;2024-03-22T09:14:20;18.40;99.90
17333;DHT22;8784;50.94667800;7.08448400;2024-03-22T09:16:48;18.50;99.90
17333;DHT22;8784;50.94667800;7.08448400;2024-03-22T09:19:16;18.60;99.90
17333;DHT22;8784;50.94667800;7.08448400;2024-03-22T09:21:43;18.80;99.90
17333;DHT22;8784;50.94667800;7.08448400;2024-03-22T09:24:09;19.10;99.90
17333;DHT22;8784;50.94667800;7.08448400;2024-03-22T09:26:36;19.50;99.90
17333;DHT22;8784;50.94667800;7.08448400;2024-03-22T09:29:02;19.90;99.10
17333;DHT22;8784;50.94667800;7.08448400;2024-03-22T09:31:29;20.90;98.70
17333;DHT22;8784;50.94667800;7.08448400;2024-03-22T09:33:57;21.80;96.30
17333;DHT22;8784;50.94667800;7.08448400;2024-03-22T09:36:24;22.00;94.50
17333;DHT22;8784;50.94667800;7.08448400;2024-03-22T09:38:50;21.90;93.50
17333;DHT22;8784;50.94667800;7.08448400;2024-03-22T09:41:23;21.70;92.50
17333;DHT22;8784;50.94667800;7.08448400;2024-03-22T09:43:51;21.60;92.30
17333;DHT22;8784;50.94667800;7.08448400;2024-03-22T09:46:19;21.70;92.10
17333;DHT22;8784;50.94667800;7.08448400;2024-03-22T09:48:47;21.90;91.30
17333;DHT22;8784;50.94667800;7.08448400;2024-03-22T09:51:16;22.30;91.10
17333;DHT22;8784;50.94667800;7.08448400;2024-03-22T09:53:44;22.70;89.50
17333;DHT22;8784;50.94667800;7.08448400;2024-03-22T09:56:14;22.70;87.60
17333;DHT22;8784;50.94667800;7.08448400;2024-03-22T09:58:42;22.70;86.50
17333;DHT22;8784;50.94667800;7.08448400;2024-03-22T10:01:08;22.60;85.00
17333;DHT22;8784;50.94667800;7.08448400;2024-03-22T10:03:35;22.70;84.20
17333;DHT22;8784;50.94667800;7.08448400;2024-03-22T10:06:02;23.50;83.30
17333;DHT22;8784;50.94667800;7.08448400;2024-03-22T10:08:32;24.00;81.10
17333;DHT22;8784;50.94667800;7.08448400;2024-03-22T10:11:02;24.10;79.90
17333;DHT22;8784;50.94667800;7.08448400;2024-03-22T10:13:29;23.80;77.40
17333;DHT22;8784;50.94667800;7.08448400;2024-03-22T10:15:55;23.30;77.80
17333;DHT22;8784;50.94667800;7.08448400;2024-03-22T10:18:23;23.00;78.50
17333;DHT22;8784;50.94667800;7.08448400;2024-03-22T10:20:59;22.80;78.50
17333;DHT22;8784;50.94667800;7.08448400;2024-03-22T10:23:26;22.70;78.40
17333;DHT22;8784;50.94667800;7.08448400;2024-03-22T10:25:53;22.40;78.00
17333;DHT22;8784;50.94667800;7.08448400;2024-03-22T10:28:21;22.10;78.50
17333;DHT22;8784;50.94667800;7.08448400;2024-03-22T10:30:50;21.70;78.70
17333;DHT22;8784;50.94667800;7.08448400;2024-03-22T10:33:18;21.40;79.40
17333;DHT22;8784;50.94667800;7.08448400;2024-03-22T10:35:45;21.30;79.90
17333;DHT22;8784;50.94667800;7.08448400;2024-03-22T10:38:13;21.00;79.90
17333;DHT22;8784;50.94667800;7.08448400;2024-03-22T10:40:41;20.70;80.40
17333;DHT22;8784;50.94667800;7.08448400;2024-03-22T10:43:12;20.60;80.70
17333;DHT22;8784;50.94667800;7.08448400;2024-03-22T10:45:38;20.40;81.00
17333;DHT22;8784;50.94667800;7.08448400;2024-03-22T10:48:09;20.30;81.60
17333;DHT22;8784;50.94667800;7.08448400;2024-03-22T10:50:38;20.20;81.60
17333;DHT22;8784;50.94667800;7.08448400;2024-03-22T10:53:09;20.00;81.90
17333;DHT22;8784;50.94667800;7.08448400;2024-03-22T10:55:37;20.00;82.10
17333;DHT22;8784;50.94667800;7.08448400;2024-03-22T10:58:05;19.90;82.10
17333;DHT22;8784;50.94667800;7.08448400;2024-03-22T11:00:34;19.90;82.50
17333;DHT22;8784;50.94667800;7.08448400;2024-03-22T11:03:02;19.90;82.20
17333;DHT22;8784;50.94667800;7.08448400;2024-03-22T11:05:28;19.90;82.40
17333;DHT22;8784;50.94667800;7.08448400;2024-03-22T11:07:59;19.90;82.50
17333;DHT22;8784;50.94667800;7.08448400;2024-03-22T11:10:28;20.00;82.50
17333;DHT22;8784;50.94667800;7.08448400;2024-03-22T11:13:01;20.10;82.50
17333;DHT22;8784;50.94667800;7.08448400;2024-03-22T11:15:28;20.20;82.40
17333;DHT22;8784;50.94667800;7.08448400;2024-03-22T11:17:57;20.20;82.00
17333;DHT22;8784;50.94667800;7.08448400;2024-03-22T11:20:23;20.10;82.10
17333;DHT22;8784;50.94667800;7.08448400;2024-03-22T11:22:51;20.10;82.10
17333;DHT22;8784;50.94667800;7.08448400;2024-03-22T11:25:17;20.00;82.20
17333;DHT22;8784;50.94667800;7.08448400;2024-03-22T11:27:44;20.00;82.30
17333;DHT22;8784;50.94667800;7.08448400;2024-03-22T11:30:10;20.00;82.10
17333;DHT22;8784;50.94667800;7.08448400;2024-03-22T11:32:40;20.00;82.10
17333;DHT22;8784;50.94667800;7.08448400;2024-03-22T11:35:11;19.90;82.20
17333;DHT22;8784;50.94667800;7.08448400;2024-03-22T11:37:38;20.00;82.40
17333;DHT22;8784;50.94667800;7.08448400;2024-03-22T11:40:08;20.00;82.40
17333;DHT22;8784;50.94667800;7.08448400;2024-03-22T11:42:36;20.10;82.00
17333;DHT22;8784;50.94667800;7.08448400;2024-03-22T11:45:02;20.10;81.90
17333;DHT22;8784;50.94667800;7.08448400;2024-03-22T11:47:30;20.20;82.40
17333;DHT22;8784;50.94667800;7.08448400;2024-03-22T11:49:56;20.40;81.70
17333;DHT22;8784;50.94667800;7.08448400;2024-03-22T11:52:26;20.50;81.80
17333;DHT22;8784;50.94667800;7.08448400;2024-03-22T11:54:52;20.70;81.10
17333;DHT22;8784;50.94667800;7.08448400;2024-03-22T11:57:20;20.60;80.00
17333;DHT22;8784;50.94667800;7.08448400;2024-03-22T11:59:46;20.40;80.30
17333;DHT22;8784;50.94667800;7.08448400;2024-03-22T12:02:13;20.20;80.50
17333;DHT22;8784;50.94667800;7.08448400;2024-03-22T12:04:41;20.20;80.60
17333;DHT22;8784;50.94667800;7.08448400;2024-03-22T12:07:10;20.10;80.40
17333;DHT22;8784;50.94667800;7.08448400;2024-03-22T12:09:38;20.00;80.70
17333;DHT22;8784;50.94667800;7.08448400;2024-03-22T12:12:06;20.00;80.90
17333;DHT22;8784;50.94667800;7.08448400;2024-03-22T12:14:33;19.90;81.20
17333;DHT22;8784;50.94667800;7.08448400;2024-03-22T12:17:01;19.80;80.40
17333;DHT22;8784;50.94667800;7.08448400;2024-03-22T12:19:27;19.80;80.60
17333;DHT22;8784;50.94667800;7.08448400;2024-03-22T12:21:54;19.70;80.20
17333;DHT22;8784;50.94667800;7.08448400;2024-03-22T12:24:21;19.70;80.20
17333;DHT22;8784;50.94667800;7.08448400;2024-03-22T12:26:50;19.70;80.00
17333;DHT22;8784;50.94667800;7.08448400;2024-03-22T12:29:16;19.60;80.20
17333;DHT22;8784;50.94667800;7.08448400;2024-03-22T12:31:44;19.50;79.80
17333;DHT22;8784;50.94667800;7.08448400;2024-03-22T12:34:10;19.30;80.00
17333;DHT22;8784;50.94667800;7.08448400;2024-03-22T12:36:37;19.20;80.50
17333;DHT22;8784;50.94667800;7.08448400;2024-03-22T12:39:03;19.10;80.30
17333;DHT22;8784;50.94667800;7.08448400;2024-03-22T12:41:31;19.10;80.20
17333;DHT22;8784;50.94667800;7.08448400;2024-03-22T12:43:58;19.00;80.60
17333;DHT22;8784;50.94667800;7.08448400;2024-03-22T12:46:26;19.00;81.10
17333;DHT22;8784;50.94667800;7.08448400;2024-03-22T12:48:52;18.90;81.10
17333;DHT22;8784;50.94667800;7.08448400;2024-03-22T12:51:20;18.90;81.30
17333;DHT22;8784;50.94667800;7.08448400;2024-03-22T12:53:46;18.80;81.60
17333;DHT22;8784;50.94667800;7.08448400;2024-03-22T12:56:13;18.80;82.00
17333;DHT22;8784;50.94667800;7.08448400;2024-03-22T12:58:42;18.80;82.20
17333;DHT22;8784;50.94667800;7.08448400;2024-03-22T13:01:11;18.70;82.30
17333;DHT22;8784;50.94667800;7.08448400;2024-03-22T13:03:37;18.70;82.20
17333;DHT22;8784;50.94667800;7.08448400;2024-03-22T13:06:04;18.70;82.10
17333;DHT22;8784;50.94667800;7.08448400;2024-03-22T13:08:31;18.70;82.10
17333;DHT22;8784;50.94667800;7.08448400;2024-03-22T13:10:58;18.70;82.00
17333;DHT22;8784;50.94667800;7.08448400;2024-03-22T13:13:24;18.50;81.80
17333;DHT22;8784;50.94667800;7.08448400;2024-03-22T13:15:51;18.50;82.20
17333;DHT22;8784;50.94667800;7.08448400;2024-03-22T13:18:18;18.50;82.10
17333;DHT22;8784;50.94667800;7.08448400;2024-03-22T13:20:47;18.60;82.00
17333;DHT22;8784;50.94667800;7.08448400;2024-03-22T13:23:13;18.80;82.90
17333;DHT22;8784;50.94667800;7.08448400;2024-03-22T13:25:40;19.00;82.30
17333;DHT22;8784;50.94667800;7.08448400;2024-03-22T13:28:06;19.20;80.80
17333;DHT22;8784;50.94667800;7.08448400;2024-03-22T13:30:33;19.20;80.60
17333;DHT22;8784;50.94667800;7.08448400;2024-03-22T13:33:01;19.40;79.70